createdAt,value
2023-01-05T00:01:53.319Z,40.78
2023-01-05T00:04:21.011Z,41.15
2023-01-05T00:06:48.871Z,40.17
2023-01-05T00:09:18.910Z,35.03
2023-01-05T00:12:04.852Z,28.17
2023-01-05T00:14:52.385Z,31.90
2023-01-05T00:17:41.375Z,28.85
2023-01-05T00:20:40.020Z,32.53
2023-01-05T00:23:09.156Z,36.75
2023-01-05T00:25:39.821Z,42.20
2023-01-05T00:28:07.976Z,44.08
2023-01-05T00:30:40.388Z,51.88
2023-01-05T00:33:11.719Z,65.57
2023-01-05T00:35:40.037Z,56.98
2023-01-05T00:38:08.555Z,62.73
2023-01-05T00:40:38.553Z,74.62
2023-01-05T00:43:06.443Z,75.80
2023-01-05T00:45:34.402Z,57.78
2023-01-05T00:48:02.097Z,58.63
2023-01-05T00:50:29.980Z,46.60
2023-01-05T00:52:57.703Z,44.70
2023-01-05T00:55:27.689Z,41.68
2023-01-05T00:57:56.100Z,43.50
2023-01-05T01:00:23.990Z,34.65
2023-01-05T01:02:54.722Z,35.15
2023-01-05T01:05:23.541Z,33.08
2023-01-05T01:07:52.760Z,29.45
2023-01-05T01:10:20.650Z,28.85
2023-01-05T01:12:48.357Z,30.90
2023-01-05T01:15:16.312Z,32.55
2023-01-05T01:17:44.341Z,33.65
2023-01-05T01:20:12.678Z,28.40
2023-01-05T01:22:40.508Z,26.62
2023-01-05T01:25:09.335Z,26.97
2023-01-05T01:27:37.115Z,30.23
2023-01-05T01:30:05.990Z,29.18
2023-01-05T01:32:34.088Z,29.37
2023-01-05T01:35:01.982Z,79.20
2023-01-05T01:37:29.985Z,47.33
2023-01-05T01:39:58.484Z,40.83
2023-01-05T01:42:26.675Z,66.00
2023-01-05T01:45:01.342Z,80.25
2023-01-05T01:47:39.326Z,83.72
2023-01-05T01:50:19.041Z,59.38
2023-01-05T01:52:50.556Z,48.48
2023-01-05T01:55:19.619Z,50.00
2023-01-05T01:57:49.099Z,41.30
2023-01-05T02:00:18.818Z,40.85
2023-01-05T02:02:49.143Z,39.92
2023-01-05T02:05:22.481Z,42.93
2023-01-05T02:07:50.345Z,41.80
2023-01-05T02:10:23.920Z,42.98
2023-01-05T02:13:12.316Z,41.02
2023-01-05T02:15:54.382Z,43.13
2023-01-05T02:18:39.804Z,40.63
2023-01-05T02:21:33.553Z,48.17
2023-01-05T02:24:27.614Z,52.38
2023-01-05T02:27:21.583Z,49.48
2023-01-05T02:30:14.337Z,56.73
2023-01-05T02:33:02.294Z,54.15
2023-01-05T02:35:53.629Z,53.05
2023-01-05T02:38:44.287Z,77.22
2023-01-05T02:44:02.338Z,77.30
2023-01-05T02:46:30.938Z,70.80
2023-01-05T02:49:01.259Z,75.90
2023-01-05T02:51:39.143Z,63.80
2023-01-05T02:54:20.640Z,58.87
2023-01-05T02:57:04.511Z,55.40
2023-01-05T02:59:49.499Z,49.20
2023-01-05T03:02:24.897Z,49.95
2023-01-05T03:05:07.503Z,44.18
2023-01-05T03:07:39.416Z,43.20
2023-01-05T03:10:12.279Z,41.60
2023-01-05T03:12:58.727Z,41.83
2023-01-05T03:15:32.940Z,41.37
2023-01-05T03:18:05.045Z,46.73
2023-01-05T03:20:35.653Z,45.20
2023-01-05T03:23:26.468Z,47.35
2023-01-05T03:26:14.721Z,41.98
2023-01-05T03:29:17.847Z,42.48
2023-01-05T03:32:16.927Z,41.40
2023-01-05T03:35:17.585Z,44.13
2023-01-05T03:38:12.355Z,40.88
2023-01-05T03:40:41.625Z,39.35
2023-01-05T03:43:10.236Z,38.85
2023-01-05T03:45:46.667Z,38.28
2023-01-05T03:48:16.596Z,35.88
2023-01-05T03:50:44.524Z,27.37
2023-01-05T03:53:14.874Z,39.63
2023-01-05T03:55:44.208Z,32.30
2023-01-05T03:58:12.176Z,33.02
2023-01-05T04:00:41.880Z,30.32
2023-01-05T04:03:10.602Z,31.05
2023-01-05T04:05:39.372Z,29.07
2023-01-05T04:08:07.148Z,30.35
2023-01-05T04:10:36.091Z,26.85
2023-01-05T04:13:04.172Z,24.37
2023-01-05T04:15:32.113Z,21.02
2023-01-05T04:18:00.562Z,23.83
2023-01-05T04:20:28.944Z,24.00
2023-01-05T04:22:56.751Z,25.00
2023-01-05T04:25:26.497Z,23.60
2023-01-05T04:27:54.290Z,22.40
2023-01-05T04:30:22.490Z,22.85
2023-01-05T04:32:50.455Z,21.20
2023-01-05T04:35:18.199Z,20.50
2023-01-05T04:37:46.097Z,20.40
2023-01-05T04:40:14.382Z,23.70
2023-01-05T04:42:44.072Z,19.25
2023-01-05T04:45:11.709Z,22.13
2023-01-05T04:47:39.690Z,22.87
2023-01-05T04:50:11.197Z,21.87
2023-01-05T04:52:39.593Z,84.45
2023-01-05T04:55:08.958Z,37.63
2023-01-05T04:57:36.931Z,31.27
2023-01-05T05:00:05.900Z,36.40
2023-01-05T05:02:34.997Z,25.72
2023-01-05T05:05:03.245Z,22.60
2023-01-05T05:07:31.102Z,28.20
2023-01-05T05:09:59.996Z,21.10
2023-01-05T05:12:28.324Z,26.70
2023-01-05T05:14:56.219Z,28.05
2023-01-05T05:17:24.978Z,30.12
2023-01-05T05:19:52.870Z,26.68
2023-01-05T05:22:21.504Z,29.70
2023-01-05T05:24:49.550Z,33.80
2023-01-05T05:27:17.276Z,26.87
2023-01-05T05:29:45.186Z,33.48
2023-01-05T05:32:13.033Z,28.70
2023-01-05T05:34:40.898Z,37.23
2023-01-05T05:37:09.196Z,34.90
2023-01-05T05:39:36.882Z,33.28
2023-01-05T05:42:04.957Z,32.35
2023-01-05T05:44:32.791Z,29.65
2023-01-05T05:47:00.528Z,28.40
2023-01-05T05:49:28.501Z,32.75
2023-01-05T05:51:56.464Z,30.68
2023-01-05T05:54:24.319Z,25.72
2023-01-05T05:56:52.132Z,27.30
2023-01-05T05:59:20.071Z,28.87
2023-01-05T06:01:47.952Z,25.40
2023-01-05T06:04:15.717Z,26.80
2023-01-05T06:06:43.357Z,30.40
2023-01-05T06:09:11.070Z,26.42
2023-01-05T06:11:39.013Z,23.55
2023-01-05T06:14:07.982Z,25.72
2023-01-05T06:16:35.967Z,31.33
2023-01-05T06:19:03.782Z,40.28
2023-01-05T06:21:31.851Z,49.83
2023-01-05T06:23:59.692Z,96.70
2023-01-05T06:26:27.591Z,88.70
2023-01-05T06:28:55.624Z,74.32
2023-01-05T06:31:23.414Z,68.95
2023-01-05T06:33:51.116Z,103.83
2023-01-05T06:36:18.954Z,69.58
2023-01-05T06:38:46.843Z,70.32
2023-01-05T06:41:14.941Z,60.88
2023-01-05T06:43:42.682Z,54.18
2023-01-05T06:46:10.690Z,53.08
2023-01-05T06:48:38.877Z,36.53
2023-01-05T06:51:06.670Z,33.63
2023-01-05T06:53:34.689Z,34.40
2023-01-05T06:56:02.740Z,32.40
2023-01-05T06:58:30.861Z,33.80
2023-01-05T07:00:58.975Z,34.10
2023-01-05T07:03:30.991Z,42.33
2023-01-05T07:05:58.987Z,39.13
2023-01-05T07:08:27.157Z,43.58
2023-01-05T07:10:55.156Z,64.90
2023-01-05T07:13:23.373Z,32.13
2023-01-05T07:15:51.457Z,43.30
2023-01-05T07:18:19.559Z,28.83
2023-01-05T07:20:47.583Z,28.98
2023-01-05T07:23:18.189Z,28.00
2023-01-05T07:25:47.265Z,25.68
2023-01-05T07:28:15.626Z,24.72
2023-01-05T07:30:43.921Z,28.90
2023-01-05T07:33:11.915Z,23.47
2023-01-05T07:35:39.900Z,27.67
2023-01-05T07:38:12.475Z,28.30
2023-01-05T07:40:41.253Z,26.30
2023-01-05T07:43:09.495Z,29.00
2023-01-05T07:45:37.797Z,24.55
2023-01-05T07:48:11.915Z,17.62
2023-01-05T07:50:39.641Z,15.68
2023-01-05T07:53:07.535Z,16.80
2023-01-05T07:55:35.460Z,16.62
2023-01-05T07:58:03.426Z,89.07
2023-01-05T08:00:31.141Z,21.33
2023-01-05T08:02:58.868Z,34.25
2023-01-05T08:05:28.508Z,18.90
2023-01-05T08:07:58.190Z,19.15
2023-01-05T08:10:30.170Z,18.42
2023-01-05T08:13:22.276Z,18.98
2023-01-05T08:15:57.781Z,22.13
2023-01-05T08:20:59.232Z,26.52
2023-01-05T08:23:28.252Z,21.27
2023-01-05T08:25:56.288Z,22.85
2023-01-05T08:28:29.901Z,23.52
2023-01-05T08:31:02.124Z,21.68
2023-01-05T08:33:29.937Z,20.05
2023-01-05T08:35:58.276Z,39.13
2023-01-05T08:38:26.558Z,22.40
2023-01-05T08:41:01.964Z,33.08
2023-01-05T08:43:31.756Z,24.92
2023-01-05T08:45:59.062Z,22.73
2023-01-05T08:48:26.887Z,19.55
2023-01-05T08:50:54.655Z,21.12
2023-01-05T08:53:22.370Z,20.62
2023-01-05T08:55:50.175Z,26.00
2023-01-05T08:58:17.907Z,34.23
2023-01-05T09:00:45.841Z,31.85
2023-01-05T09:03:13.681Z,17.92
2023-01-05T09:05:41.755Z,18.27
2023-01-05T09:08:09.434Z,16.30
2023-01-05T09:10:37.193Z,18.55
2023-01-05T09:13:04.977Z,21.85
2023-01-05T09:15:32.540Z,26.27
2023-01-05T09:18:01.076Z,20.27
2023-01-05T09:20:32.013Z,22.65
2023-01-05T09:22:58.708Z,14.40
2023-01-05T09:25:26.546Z,19.57
2023-01-05T09:27:54.415Z,16.15
2023-01-05T09:30:22.081Z,15.65
2023-01-05T09:32:50.143Z,21.42
2023-01-05T09:35:17.915Z,17.92
2023-01-05T09:37:46.152Z,15.45
2023-01-05T09:40:14.151Z,17.17
2023-01-05T09:42:45.865Z,17.65
2023-01-05T09:45:20.863Z,18.45
2023-01-05T09:47:49.745Z,13.95
2023-01-05T09:50:24.612Z,14.20
2023-01-05T09:52:57.315Z,16.70
2023-01-05T09:55:28.572Z,15.38
2023-01-05T09:58:04.810Z,18.02
2023-01-05T10:00:33.426Z,15.98
2023-01-05T10:03:44.681Z,12.98
2023-01-05T10:05:49.504Z,14.03
2023-01-05T10:08:28.424Z,12.53
2023-01-05T10:11:23.194Z,12.82
2023-01-05T10:14:05.363Z,14.47
2023-01-05T10:16:35.141Z,23.62
2023-01-05T10:19:04.337Z,22.07
2023-01-05T10:22:06.794Z,16.30
2023-01-05T10:24:46.846Z,17.37
2023-01-05T10:27:38.648Z,20.72
2023-01-05T10:30:28.448Z,20.12
2023-01-05T10:33:25.261Z,15.85
2023-01-05T10:36:12.043Z,18.40
2023-01-05T10:39:00.565Z,29.02
2023-01-05T10:41:40.933Z,30.05
2023-01-05T10:44:32.216Z,30.62
2023-01-05T10:47:01.438Z,25.37
2023-01-05T10:49:32.358Z,22.25
2023-01-05T10:52:01.245Z,23.65
2023-01-05T10:54:46.790Z,23.67
2023-01-05T10:57:37.502Z,23.50
2023-01-05T11:00:19.873Z,19.23
2023-01-05T11:03:00.962Z,18.77
2023-01-05T11:05:36.422Z,22.52
2023-01-05T11:08:09.023Z,15.78
2023-01-05T11:10:59.173Z,19.75
2023-01-05T11:13:42.934Z,18.92
2023-01-05T11:16:15.891Z,18.80
2023-01-05T11:19:03.469Z,28.42
2023-01-05T11:21:41.832Z,26.17
2023-01-05T11:24:26.757Z,23.42
2023-01-05T11:27:02.539Z,24.50
2023-01-05T11:29:32.677Z,27.32
2023-01-05T11:32:06.401Z,25.68
2023-01-05T11:34:45.407Z,23.02
2023-01-05T11:37:23.734Z,22.27
2023-01-05T11:39:55.740Z,27.22
2023-01-05T11:42:28.752Z,22.87
2023-01-05T11:45:06.765Z,24.40
2023-01-05T11:47:44.600Z,40.52
2023-01-05T11:50:28.205Z,29.48
2023-01-05T11:52:58.919Z,24.98
2023-01-05T11:55:39.578Z,27.75
2023-01-05T11:58:30.472Z,28.80
2023-01-05T12:01:12.411Z,34.45
2023-01-05T12:04:07.227Z,32.38
2023-01-05T12:07:19.824Z,30.00
2023-01-05T12:10:05.382Z,26.52
2023-01-05T12:12:38.763Z,24.87
2023-01-05T12:15:18.150Z,28.00
2023-01-05T12:18:24.207Z,33.88
2023-01-05T12:21:12.467Z,37.78
2023-01-05T12:24:08.442Z,31.10
2023-01-05T12:26:44.374Z,29.77
2023-01-05T12:36:01.820Z,47.88
2023-01-05T12:38:43.979Z,43.42
2023-01-05T12:41:38.108Z,40.12
2023-01-05T12:44:26.621Z,39.60
2023-01-05T12:47:28.781Z,35.15
2023-01-05T12:50:01.212Z,37.73
2023-01-05T12:52:55.117Z,37.15
2023-01-05T12:59:01.022Z,39.67
2023-01-05T13:01:34.142Z,34.43
2023-01-05T13:04:16.076Z,30.70
2023-01-05T13:06:51.663Z,26.80
2023-01-05T13:09:29.349Z,23.02
2023-01-05T13:12:07.321Z,18.55
2023-01-05T13:14:52.919Z,19.80
2023-01-05T13:17:29.720Z,23.85
2023-01-05T13:20:18.417Z,26.50
2023-01-05T13:22:49.333Z,25.72
2023-01-05T13:25:24.255Z,32.17
2023-01-05T13:27:52.261Z,51.33
2023-01-05T13:30:37.829Z,50.15
2023-01-05T13:36:33.039Z,20.08
2023-01-05T13:39:34.039Z,27.93
2023-01-05T13:42:42.135Z,41.48
2023-01-05T13:45:24.538Z,27.67
2023-01-05T13:48:44.588Z,26.35
2023-01-05T13:51:49.785Z,27.02
2023-01-05T13:54:26.932Z,32.03
2023-01-05T13:56:55.388Z,75.05
2023-01-05T13:59:34.876Z,24.27
2023-01-05T14:02:00.091Z,24.80
2023-01-05T14:04:33.057Z,32.65
2023-01-05T14:07:12.700Z,42.67
2023-01-05T14:09:49.096Z,48.90
2023-01-05T14:12:22.786Z,41.73
2023-01-05T14:15:12.555Z,38.67
2023-01-05T14:18:01.287Z,41.77
2023-01-05T14:20:51.227Z,42.98
2023-01-05T14:23:29.639Z,44.20
2023-01-05T14:26:08.214Z,43.33
2023-01-05T14:28:45.778Z,52.90
2023-01-05T14:31:20.684Z,58.28
2023-01-05T14:34:06.595Z,70.05
2023-01-05T14:37:00.932Z,71.20
2023-01-05T14:39:44.545Z,73.12
2023-01-05T14:42:17.212Z,71.17
2023-01-05T14:45:01.142Z,79.65
2023-01-05T14:47:48.089Z,80.65
2023-01-05T14:50:40.140Z,80.72
2023-01-05T14:53:21.746Z,64.17
2023-01-05T14:55:58.417Z,75.37
2023-01-05T14:58:43.558Z,87.95
2023-01-05T15:01:22.951Z,85.25
2023-01-05T15:04:17.042Z,63.55
2023-01-05T15:07:19.716Z,55.73
2023-01-05T15:10:05.238Z,57.23
2023-01-05T15:12:54.440Z,45.58
2023-01-05T15:15:43.492Z,57.17
2023-01-05T15:18:38.191Z,41.53
2023-01-05T15:21:11.357Z,43.92
2023-01-05T15:24:21.108Z,34.43
2023-01-05T15:27:09.388Z,46.13
2023-01-05T15:30:01.631Z,38.08
2023-01-05T15:32:37.301Z,39.03
2023-01-05T15:35:28.519Z,30.88
2023-01-05T15:37:56.583Z,35.38
2023-01-05T15:40:30.450Z,47.20
2023-01-05T15:43:01.777Z,44.25
2023-01-05T15:45:35.960Z,37.95
2023-01-05T15:48:09.378Z,44.45
2023-01-05T15:50:48.437Z,43.13
2023-01-05T15:53:34.873Z,43.75
2023-01-05T15:56:04.138Z,46.02
2023-01-05T15:58:36.674Z,63.78
2023-01-05T16:01:09.881Z,163.10
2023-01-05T16:03:41.127Z,115.72
2023-01-05T16:06:28.004Z,80.72
2023-01-05T16:09:01.488Z,74.58
2023-01-05T16:11:40.225Z,73.50
2023-01-05T16:14:27.712Z,84.55
2023-01-05T16:17:06.570Z,101.12
2023-01-05T16:19:42.373Z,147.37
2023-01-05T16:22:36.527Z,140.50
2023-01-05T16:25:21.918Z,133.65
2023-01-05T16:27:56.469Z,117.08
2023-01-05T16:30:34.593Z,107.53
2023-01-05T16:33:20.284Z,95.15
2023-01-05T16:35:54.859Z,85.47
2023-01-05T16:38:30.745Z,84.77
2023-01-05T16:41:16.588Z,77.50
2023-01-05T16:44:02.053Z,60.23
2023-01-05T16:46:34.798Z,39.50
2023-01-05T16:49:28.175Z,28.52
2023-01-05T16:51:56.873Z,23.42
2023-01-05T16:54:38.856Z,23.30
2023-01-05T16:57:34.300Z,18.57
2023-01-05T17:00:03.991Z,18.90
2023-01-05T17:02:45.741Z,21.75
2023-01-05T17:05:22.125Z,13.95
2023-01-05T17:08:07.817Z,11.70
2023-01-05T17:10:36.297Z,9.33
2023-01-05T17:13:09.384Z,9.98
2023-01-05T17:15:43.453Z,14.00
2023-01-05T17:18:27.099Z,19.90
2023-01-05T17:20:58.677Z,17.15
2023-01-05T17:23:49.609Z,26.50
2023-01-05T17:26:32.280Z,23.02
2023-01-05T17:31:35.261Z,48.80
2023-01-05T17:34:03.459Z,37.38
2023-01-05T17:36:34.021Z,36.13
2023-01-05T17:39:02.795Z,28.95
2023-01-05T17:41:30.866Z,21.55
2023-01-05T17:43:58.788Z,19.10
2023-01-05T17:46:31.110Z,17.77
2023-01-05T17:49:02.238Z,18.60
2023-01-05T17:51:30.807Z,18.75
2023-01-05T17:53:59.371Z,25.77
2023-01-05T17:56:27.035Z,24.05
2023-01-05T17:59:00.292Z,30.68
2023-01-05T18:01:28.273Z,30.92
2023-01-05T18:03:56.273Z,25.40
2023-01-05T18:06:25.093Z,23.57
2023-01-05T18:08:54.804Z,21.02
2023-01-05T18:11:24.995Z,29.05
2023-01-05T18:13:54.924Z,27.62
2023-01-05T18:16:23.860Z,23.27
2023-01-05T18:18:53.943Z,24.72
2023-01-05T18:21:22.486Z,19.62
2023-01-05T18:23:51.672Z,28.10
2023-01-05T18:26:19.536Z,37.13
2023-01-05T18:28:47.424Z,27.05
2023-01-05T18:31:16.412Z,28.60
2023-01-05T18:33:44.973Z,32.00
2023-01-05T18:36:14.618Z,29.60
2023-01-05T18:38:42.935Z,22.60
2023-01-05T18:41:12.239Z,19.77
2023-01-05T18:43:43.208Z,27.65
2023-01-05T18:46:10.973Z,22.17
2023-01-05T18:48:38.747Z,21.23
2023-01-05T18:51:08.566Z,25.08
2023-01-05T18:53:39.235Z,29.50
2023-01-05T18:56:09.794Z,33.20
2023-01-05T18:58:46.440Z,49.77
2023-01-05T19:01:17.758Z,53.73
2023-01-05T19:03:46.360Z,65.08
2023-01-05T19:06:17.518Z,63.55
2023-01-05T19:08:48.183Z,64.65
2023-01-05T19:11:26.194Z,56.13
2023-01-05T19:13:55.882Z,52.80
2023-01-05T19:16:27.237Z,47.67
2023-01-05T19:19:00.756Z,43.68
2023-01-05T19:21:32.353Z,36.03
2023-01-05T19:24:02.657Z,34.35
2023-01-05T19:26:33.198Z,37.30
2023-01-05T19:29:03.262Z,38.33
2023-01-05T19:31:31.522Z,44.58
2023-01-05T19:33:59.499Z,46.15
2023-01-05T19:36:31.262Z,61.60
2023-01-05T19:39:07.843Z,68.65
2023-01-05T19:41:38.637Z,73.72
2023-01-05T19:44:07.136Z,73.62
2023-01-05T19:46:35.449Z,72.00
2023-01-05T19:49:03.511Z,70.20
2023-01-05T19:51:31.581Z,74.62
2023-01-05T19:54:03.515Z,77.45
2023-01-05T19:56:36.425Z,87.45
2023-01-05T19:59:09.497Z,103.55
2023-01-05T20:01:37.677Z,148.85
2023-01-05T20:04:06.014Z,132.12
2023-01-05T20:06:40.388Z,181.63
2023-01-05T20:09:12.583Z,137.87
2023-01-05T20:11:45.842Z,129.05
2023-01-05T20:14:26.215Z,108.45
2023-01-05T20:16:58.283Z,109.03
2023-01-05T20:19:29.366Z,106.12
2023-01-05T20:22:03.056Z,87.02
2023-01-05T20:24:33.723Z,85.85
2023-01-05T20:27:05.807Z,96.40
2023-01-05T20:29:34.591Z,108.97
2023-01-05T20:32:07.433Z,85.85
2023-01-05T20:34:43.603Z,51.28
2023-01-05T20:37:12.328Z,39.90
2023-01-05T20:39:42.820Z,36.30
2023-01-05T20:42:13.465Z,44.70
2023-01-05T20:44:46.198Z,63.38
2023-01-05T20:47:16.613Z,66.85
2023-01-05T20:49:45.659Z,68.92
2023-01-05T20:52:17.055Z,54.63
2023-01-05T20:54:49.924Z,51.45
2023-01-05T20:57:21.763Z,60.12
2023-01-05T20:59:49.806Z,60.45
2023-01-05T21:02:24.063Z,54.55
2023-01-05T21:04:47.604Z,38.30
2023-01-05T21:07:15.676Z,25.90
2023-01-05T21:09:43.539Z,23.67
2023-01-05T21:12:11.359Z,17.15
2023-01-05T21:14:39.206Z,20.70
2023-01-05T21:17:07.264Z,20.23
2023-01-05T21:19:36.562Z,20.68
2023-01-05T21:22:04.870Z,40.88
2023-01-05T21:24:32.668Z,64.75
2023-01-05T21:27:00.843Z,72.17
2023-01-05T21:29:30.650Z,81.82
2023-01-05T21:32:00.235Z,76.15
2023-01-05T21:34:28.177Z,80.12
2023-01-05T21:36:56.044Z,52.62
2023-01-05T21:39:27.371Z,40.30
2023-01-05T21:42:13.735Z,62.53
2023-01-05T21:44:41.605Z,43.23
2023-01-05T21:47:09.869Z,36.50
2023-01-05T21:49:39.526Z,53.00
2023-01-05T21:52:25.716Z,31.73
2023-01-05T21:55:12.573Z,42.00
2023-01-05T21:57:40.097Z,33.78
2023-01-05T22:00:09.208Z,25.45
2023-01-05T22:02:37.251Z,22.48
2023-01-05T22:05:06.448Z,20.08
2023-01-05T22:07:34.415Z,25.10
2023-01-05T22:10:02.437Z,25.90
2023-01-05T22:12:30.520Z,18.27
2023-01-05T22:14:58.233Z,17.35
2023-01-05T22:17:26.182Z,17.60
2023-01-05T22:19:53.934Z,14.80
2023-01-05T22:22:22.474Z,15.63
2023-01-05T22:24:50.376Z,15.00
2023-01-05T22:27:18.364Z,16.55
2023-01-05T22:29:46.353Z,15.90
2023-01-05T22:32:14.252Z,22.32
2023-01-05T22:34:43.933Z,31.48
2023-01-05T22:37:11.920Z,43.50
2023-01-05T22:39:39.880Z,36.55
2023-01-05T22:42:07.805Z,19.40
2023-01-05T22:44:35.503Z,21.33
2023-01-05T22:47:03.146Z,20.48
2023-01-05T22:49:31.026Z,18.30
2023-01-05T22:51:58.771Z,11.80
2023-01-05T22:54:26.860Z,15.50
2023-01-05T22:56:54.645Z,14.18
2023-01-05T22:59:22.475Z,14.60
2023-01-05T23:01:50.179Z,11.25
2023-01-05T23:04:18.733Z,11.88
2023-01-05T23:06:46.451Z,9.50
2023-01-05T23:09:16.264Z,11.70
2023-01-05T23:11:46.420Z,9.95
2023-01-05T23:14:17.364Z,11.08
2023-01-05T23:16:45.482Z,11.50
2023-01-05T23:19:14.635Z,10.68
2023-01-05T23:21:42.818Z,9.98
2023-01-05T23:24:10.888Z,11.03
2023-01-05T23:26:38.832Z,8.98
2023-01-05T23:29:06.764Z,8.98
2023-01-05T23:31:34.696Z,8.20
2023-01-05T23:34:02.595Z,9.08
2023-01-05T23:36:30.307Z,12.28
2023-01-05T23:38:58.126Z,7.28
2023-01-05T23:41:25.761Z,6.90
2023-01-05T23:43:53.663Z,7.17
2023-01-05T23:46:22.472Z,6.53
2023-01-05T23:48:51.700Z,8.25
2023-01-05T23:51:19.995Z,8.75
2023-01-05T23:53:51.831Z,6.62
2023-01-05T23:56:24.414Z,9.63
2023-01-05T23:59:00.280Z,7.20
